Time;durP1;ratioP1;P1;durP2;ratioP2;P2;SDS_P1;SDS_P2;PMS_P1;PMS_P2;Temp;Humidity;BMP_temperature;BMP_pressure;BME280_temperature;BME280_humidity;BME280_pressure;Samples;Min_cycle;Max_cycle;Signal;HPM_P1;HPM_P2
2022/01/09 00:01:10;;;;;;;;;2.00;2.00;;;;;6.77;80.86;99470.09;5002172;28;45294;-78
2022/01/09 00:03:35;;;;;;;;;4.00;2.00;;;;;6.70;81.18;99472.63;5001958;28;45302;-78
2022/01/09 00:06:00;;;;;;;;;3.00;3.00;;;;;6.81;81.52;99497.78;5001503;28;45302;-79
2022/01/09 00:08:27;;;;;;;;;3.00;2.00;;;;;6.75;81.78;99491.41;5033790;28;45315;-79
2022/01/09 00:10:52;;;;;;;;;2.00;2.00;;;;;6.86;81.03;99518.38;5001724;28;45248;-79
2022/01/09 00:13:17;;;;;;;;;2.00;2.00;;;;;6.89;81.46;99523.28;5001464;28;45446;-79
2022/01/09 00:15:43;;;;;;;;;2.00;2.00;;;;;6.91;80.42;99537.94;5001659;28;46255;-78
2022/01/09 00:18:08;;;;;;;;;3.33;2.00;;;;;6.91;80.74;99543.25;5010290;28;45202;-79
2022/01/09 00:20:34;;;;;;;;;4.00;2.00;;;;;6.88;80.15;99542.78;5021789;28;45171;-78
2022/01/09 00:23:00;;;;;;;;;3.67;2.00;;;;;6.78;80.65;99532.47;5021430;28;45451;-79
2022/01/09 00:25:27;;;;;;;;;3.00;3.00;;;;;6.74;80.75;99520.63;5021439;28;45923;-79
2022/01/09 00:27:53;;;;;;;;;3.00;2.00;;;;;6.89;81.38;99552.34;5021304;28;45315;-78
2022/01/09 00:30:21;;;;;;;;;2.00;2.00;;;;;6.87;81.19;99551.69;5021484;28;45537;-78
2022/01/09 00:32:47;;;;;;;;;2.33;1.00;;;;;6.75;80.73;99538.94;5019891;28;46116;-78
2022/01/09 00:35:13;;;;;;;;;4.00;1.33;;;;;6.78;81.11;99558.88;5021077;28;46141;-78
2022/01/09 00:37:39;;;;;;;;;2.33;2.33;;;;;6.74;80.60;99563.72;5021171;28;45262;-78
2022/01/09 00:40:09;;;;;;;;;2.33;2.33;;;;;6.77;79.72;99581.81;5021290;28;45427;-79
2022/01/09 00:42:34;;;;;;;;;3.33;1.67;;;;;6.72;79.54;99592.09;5021152;28;45247;-78
2022/01/09 00:45:00;;;;;;;;;2.00;2.00;;;;;6.73;80.21;99585.00;5021072;28;45367;-79
2022/01/09 00:47:25;;;;;;;;;1.67;1.67;;;;;6.75;80.49;99594.38;5019766;28;45351;-77
2022/01/09 00:49:50;;;;;;;;;3.00;1.00;;;;;6.84;80.50;99602.22;5019866;28;45491;-78
2022/01/09 00:52:16;;;;;;;;;2.67;2.67;;;;;6.77;80.67;99604.78;5020848;28;45337;-79
2022/01/09 00:54:42;;;;;;;;;3.33;2.33;;;;;6.76;79.17;99609.22;5020082;28;46955;-78
2022/01/09 00:57:07;;;;;;;;;4.00;2.33;;;;;6.72;79.04;99612.41;5021010;28;45276;-78
2022/01/09 00:59:32;;;;;;;;;2.33;2.00;;;;;6.75;79.93;99634.00;5019675;28;45418;-78
2022/01/09 01:01:58;;;;;;;;;2.00;2.00;;;;;6.74;79.73;99639.47;5020807;28;45294;-78
2022/01/09 01:04:23;;;;;;;;;5.67;2.00;;;;;6.64;79.59;99631.75;5020785;28;46247;-78
2022/01/09 01:06:49;;;;;;;;;1.00;1.00;;;;;6.61;79.89;99648.78;5019047;28;45299;-79
2022/01/09 01:09:16;;;;;;;;;3.00;1.00;;;;;6.65;79.45;99665.91;5019337;28;45264;-78
2022/01/09 01:11:41;;;;;;;;;4.67;3.00;;;;;6.62;79.41;99660.16;5019252;28;47472;-79
2022/01/09 01:14:07;;;;;;;;;3.00;3.00;;;;;6.51;79.89;99664.03;5020451;28;45359;-79
2022/01/09 01:16:32;;;;;;;;;4.00;4.00;;;;;6.40;79.48;99644.13;5020614;28;45261;-79
2022/01/09 01:18:58;;;;;;;;;4.33;1.67;;;;;6.49;79.54;99677.41;5005603;28;45272;-78
2022/01/09 01:21:24;;;;;;;;;3.00;3.00;;;;;6.50;79.77;99686.16;5000424;28;45445;-79
2022/01/09 01:23:50;;;;;;;;;3.67;2.33;;;;;6.52;79.60;99687.59;5000452;28;46156;-78
2022/01/09 01:26:16;;;;;;;;;4.33;3.67;;;;;6.28;79.70;99676.19;4999729;28;45312;-78
2022/01/09 01:28:41;;;;;;;;;4.00;2.67;;;;;6.45;79.59;99715.69;5000724;28;45230;-78
2022/01/09 01:31:06;;;;;;;;;5.00;3.00;;;;;6.46;79.82;99714.69;5032486;28;45915;-79
2022/01/09 01:33:32;;;;;;;;;4.00;2.00;;;;;6.37;79.95;99715.75;5032111;28;47254;-78
2022/01/09 01:35:57;;;;;;;;;3.00;3.00;;;;;6.34;80.32;99719.53;5000376;28;45163;-78
2022/01/09 01:38:23;;;;;;;;;1.67;1.67;;;;;6.39;79.83;99729.56;5000588;28;45535;-78
2022/01/09 01:40:48;;;;;;;;;2.00;2.00;;;;;6.42;79.91;99745.06;5000354;28;45265;-78
2022/01/09 01:43:13;;;;;;;;;2.33;2.33;;;;;6.35;80.02;99742.31;5000528;28;45279;-78
2022/01/09 01:45:39;;;;;;;;;3.33;3.00;;;;;6.35;79.43;99754.69;5000408;28;45280;-79
2022/01/09 01:48:09;;;;;;;;;3.00;2.33;;;;;6.39;79.45;99770.00;5000552;28;45190;-78
2022/01/09 01:50:37;;;;;;;;;1.00;1.00;;;;;6.41;79.28;99775.13;5015284;28;47024;-79
2022/01/09 01:53:10;;;;;;;;;3.00;2.00;;;;;6.31;79.83;99770.84;4999926;28;45256;-78
2022/01/09 01:55:37;;;;;;;;;1.00;1.00;;;;;6.35;79.51;99767.88;5000076;28;45379;-78
2022/01/09 01:58:04;;;;;;;;;4.00;4.00;;;;;6.42;79.46;99789.94;4998871;28;45247;-79
2022/01/09 02:00:31;;;;;;;;;2.00;2.00;;;;;6.42;79.64;99790.78;5000046;28;45474;-79
2022/01/09 02:02:56;;;;;;;;;2.00;1.67;;;;;6.34;78.88;99785.50;5031798;28;47280;-78
2022/01/09 02:05:22;;;;;;;;;1.00;1.00;;;;;6.41;79.74;99798.88;4999975;28;45321;-79
2022/01/09 02:07:50;;;;;;;;;3.67;1.33;;;;;6.47;79.69;99818.47;4999779;28;45356;-79
2022/01/09 02:10:15;;;;;;;;;2.00;2.00;;;;;6.50;79.54;99818.16;4999782;28;45285;-79
2022/01/09 02:12:40;;;;;;;;;1.00;1.00;;;;;6.47;79.32;99813.19;4999813;28;46013;-78
2022/01/09 02:15:44;;;;;;;;;2.00;1.00;;;;;6.43;79.28;99818.81;5000149;28;45308;-78
2022/01/09 02:18:12;;;;;;;;;1.67;1.00;;;;;6.44;79.16;99814.38;5025680;28;45378;-77
2022/01/09 02:20:39;;;;;;;;;1.33;1.00;;;;;6.35;79.35;99829.41;5017701;28;47468;-78
2022/01/09 02:23:07;;;;;;;;;0.00;0.00;;;;;6.18;79.87;99820.69;5019606;28;46117;-78
2022/01/09 02:25:33;;;;;;;;;0.67;0.00;;;;;6.10;79.93;99818.09;5019580;28;45374;-79
2022/01/09 02:27:59;;;;;;;;;3.00;3.00;;;;;6.10;80.11;99834.72;5019660;28;45248;-78
2022/01/09 02:30:24;;;;;;;;;1.00;1.00;;;;;6.13;80.33;99852.03;5019519;28;45305;-78
2022/01/09 02:32:50;;;;;;;;;2.00;0.33;;;;;6.11;80.34;99852.19;5019402;28;45395;-78
2022/01/09 02:35:15;;;;;;;;;1.00;1.00;;;;;6.05;80.59;99856.31;5019562;28;45245;-78
2022/01/09 02:37:41;;;;;;;;;1.00;1.00;;;;;6.05;80.61;99861.59;5019675;28;45436;-78
2022/01/09 02:40:07;;;;;;;;;2.33;2.00;;;;;5.96;80.74;99844.13;5022981;28;45234;-79
2022/01/09 02:42:33;;;;;;;;;2.33;1.00;;;;;5.86;81.16;99833.72;5023027;28;46320;-78
2022/01/09 02:44:59;;;;;;;;;1.33;0.67;;;;;5.96;81.06;99853.84;5022967;28;45269;-78
2022/01/09 02:47:27;;;;;;;;;1.33;1.00;;;;;5.91;81.29;99873.63;5023033;28;45309;-78
2022/01/09 02:49:54;;;;;;;;;1.00;1.00;;;;;5.87;81.51;99859.09;5021532;28;46655;-79
2022/01/09 02:52:35;;;;;;;;;1.00;1.00;;;;;5.89;81.07;99872.13;5021170;28;47807;-79
2022/01/09 02:55:14;;;;;;;;;1.00;1.00;;;;;5.77;81.40;99855.78;5021404;28;45637;-78
2022/01/09 02:57:41;;;;;;;;;0.33;0.33;;;;;5.84;81.47;99880.53;5021531;28;45305;-78
2022/01/09 03:00:09;;;;;;;;;1.33;1.00;;;;;5.82;81.12;99879.88;5021253;28;46300;-77
2022/01/09 03:02:35;;;;;;;;;1.33;0.33;;;;;5.80;80.76;99893.22;5022526;28;46184;-78
2022/01/09 03:05:00;;;;;;;;;1.00;1.00;;;;;5.78;80.80;99894.38;5022776;28;45276;-78
2022/01/09 03:07:26;;;;;;;;;1.00;1.00;;;;;5.76;80.35;99894.53;5022315;28;45213;-78
2022/01/09 03:09:51;;;;;;;;;0.00;0.00;;;;;5.75;80.26;99911.34;5022539;28;45572;-79
2022/01/09 03:12:17;;;;;;;;;0.00;0.00;;;;;5.80;80.77;99910.84;5022536;28;46099;-80
2022/01/09 03:14:42;;;;;;;;;1.00;0.33;;;;;5.80;81.32;99914.31;5021090;28;45335;-79
2022/01/09 03:17:08;;;;;;;;;0.67;0.67;;;;;5.78;81.75;99944.50;5021387;28;45346;-79
2022/01/09 03:19:33;;;;;;;;;0.00;0.00;;;;;5.79;81.57;99933.78;4982897;28;45255;-79
2022/01/09 03:21:59;;;;;;;;;0.00;0.00;;;;;5.87;81.92;99938.22;4997834;28;47246;-80
2022/01/09 03:24:24;;;;;;;;;1.67;0.00;;;;;5.78;81.88;99923.38;4981411;28;45259;-79
2022/01/09 03:26:49;;;;;;;;;0.67;0.00;;;;;5.83;81.66;99926.34;4982950;28;45336;-79
2022/01/09 03:29:15;;;;;;;;;1.00;1.00;;;;;5.85;81.47;99915.63;4982840;28;45304;-79
2022/01/09 03:31:40;;;;;;;;;0.00;0.00;;;;;5.92;81.58;99935.94;4982648;28;46094;-80
2022/01/09 03:34:05;;;;;;;;;0.00;0.00;;;;;5.70;81.30;99905.75;4982693;28;45241;-79
2022/01/09 03:36:31;;;;;;;;;1.00;1.00;;;;;5.83;81.89;99936.91;4982791;28;45358;-79
2022/01/09 03:38:56;;;;;;;;;0.67;0.00;;;;;5.74;81.44;99924.69;4982615;28;45262;-79
2022/01/09 03:41:21;;;;;;;;;1.00;1.00;;;;;5.75;81.71;99921.06;4982762;28;46186;-80
2022/01/09 03:43:47;;;;;;;;;1.00;0.00;;;;;5.73;81.94;99915.13;4982532;28;45230;-79
2022/01/09 03:46:12;;;;;;;;;1.67;1.00;;;;;5.82;81.94;99932.63;4982756;28;45144;-80
2022/01/09 03:48:37;;;;;;;;;2.33;1.00;;;;;5.82;81.63;99945.81;4981991;28;45505;-80
2022/01/09 03:51:03;;;;;;;;;3.00;1.00;;;;;5.89;82.03;99973.19;4982236;28;45330;-79
2022/01/09 03:53:30;;;;;;;;;1.00;1.00;;;;;5.85;83.03;99953.41;4997571;28;45290;-80
2022/01/09 03:55:57;;;;;;;;;2.00;2.00;;;;;5.76;83.21;99951.72;4997427;28;45248;-80
2022/01/09 03:58:22;;;;;;;;;0.33;0.33;;;;;5.80;83.72;99987.31;4982372;28;45541;-79
2022/01/09 04:00:48;;;;;;;;;0.00;0.00;;;;;5.69;84.07;99976.09;4982362;28;45312;-78
2022/01/09 04:03:13;;;;;;;;;1.00;1.00;;;;;5.74;84.15;99980.88;4982328;28;45248;-79
2022/01/09 04:05:38;;;;;;;;;1.00;0.00;;;;;5.69;83.94;99978.72;4982306;28;45334;-78
2022/01/09 04:08:04;;;;;;;;;1.00;0.00;;;;;5.47;84.12;99948.53;4982464;28;45511;-79
2022/01/09 04:10:32;;;;;;;;;0.33;0.33;;;;;5.38;85.31;99947.69;4982159;28;46017;-78
2022/01/09 04:13:00;;;;;;;;;0.00;0.00;;;;;5.25;85.25;99934.97;4982207;28;45302;-79
2022/01/09 04:15:27;;;;;;;;;3.00;0.33;;;;;5.32;85.04;99968.59;4982138;28;45282;-78
2022/01/09 04:17:55;;;;;;;;;0.00;0.00;;;;;5.09;85.35;99950.69;4993980;28;45534;-79
2022/01/09 04:20:29;;;;;;;;;0.00;0.00;;;;;5.10;84.93;99963.72;5019915;28;47457;-78
2022/01/09 04:22:56;;;;;;;;;0.67;0.00;;;;;5.14;85.70;99961.56;5021301;28;45364;-78
2022/01/09 04:25:22;;;;;;;;;0.00;0.00;;;;;5.07;85.58;99963.19;5021420;28;45360;-79
2022/01/09 04:27:50;;;;;;;;;1.00;1.00;;;;;4.95;86.00;99966.09;5021410;28;45442;-79
2022/01/09 04:30:16;;;;;;;;;2.00;0.00;;;;;4.88;85.98;99957.97;5021226;28;45461;-79
2022/01/09 04:32:41;;;;;;;;;0.00;0.00;;;;;4.93;86.00;99974.16;5021231;28;45217;-78
2022/01/09 04:35:08;;;;;;;;;0.00;0.00;;;;;4.86;85.34;99967.88;5020326;28;45625;-78
2022/01/09 04:37:34;;;;;;;;;0.00;0.00;;;;;4.86;85.73;99982.81;5019596;28;46491;-78
2022/01/09 04:40:00;;;;;;;;;0.00;0.00;;;;;4.77;85.93;99974.06;5020986;28;45403;-78
2022/01/09 04:42:37;;;;;;;;;0.00;0.00;;;;;4.86;86.63;99988.94;5021195;28;45317;-78
2022/01/09 04:45:03;;;;;;;;;0.00;0.00;;;;;4.80;86.19;99973.75;5021534;28;45226;-78
2022/01/09 04:47:28;;;;;;;;;0.00;0.00;;;;;4.78;86.19;99971.25;5021041;28;45238;-78
2022/01/09 04:49:54;;;;;;;;;1.00;0.00;;;;;4.86;86.29;99994.19;5020928;28;45325;-79
2022/01/09 04:52:24;;;;;;;;;0.00;0.00;;;;;4.83;86.58;99972.59;5019580;28;45259;-78
2022/01/09 04:54:49;;;;;;;;;0.67;0.67;;;;;4.90;86.79;99966.56;5020913;28;45379;-79
2022/01/09 04:57:15;;;;;;;;;1.00;1.00;;;;;4.91;86.95;99970.84;5020976;28;45385;-79
2022/01/09 04:59:40;;;;;;;;;0.00;0.00;;;;;5.02;86.64;99987.34;5020889;28;45418;-78
2022/01/09 05:02:06;;;;;;;;;0.67;0.67;;;;;4.96;86.72;99974.81;5019850;28;45327;-78
2022/01/09 05:04:31;;;;;;;;;1.67;1.67;;;;;4.88;86.94;99960.63;5020992;28;45334;-78
2022/01/09 05:06:56;;;;;;;;;0.00;0.00;;;;;5.03;87.15;99984.56;5019149;28;47126;-78
2022/01/09 05:09:22;;;;;;;;;1.00;1.00;;;;;5.09;86.50;99993.66;5020491;28;45445;-78
2022/01/09 05:11:47;;;;;;;;;1.00;1.00;;;;;5.09;86.96;99987.56;5020713;28;45259;-79
2022/01/09 05:14:12;;;;;;;;;1.00;0.00;;;;;5.17;86.70;99991.06;5020792;28;45209;-78
2022/01/09 05:16:42;;;;;;;;;1.33;1.33;;;;;5.20;87.07;100008.38;5020739;28;45223;-79
2022/01/09 05:19:16;;;;;;;;;1.67;1.33;;;;;5.22;87.19;99992.41;5003990;28;45383;-79
2022/01/09 05:21:42;;;;;;;;;1.00;1.00;;;;;5.24;87.33;99991.25;5000558;28;45368;-79
2022/01/09 05:24:07;;;;;;;;;1.00;0.00;;;;;5.35;87.17;99994.59;5032467;28;45339;-79
2022/01/09 05:26:32;;;;;;;;;0.67;0.00;;;;;5.38;86.81;99995.13;5000742;28;45458;-80
2022/01/09 05:28:58;;;;;;;;;1.33;1.33;;;;;5.37;87.00;99993.47;5032526;28;47087;-79
2022/01/09 05:31:24;;;;;;;;;3.67;2.67;;;;;5.37;86.80;99987.34;5000665;28;45251;-79
2022/01/09 05:33:49;;;;;;;;;1.67;0.67;;;;;5.48;86.68;100008.16;5000588;28;45418;-79
2022/01/09 05:36:14;;;;;;;;;0.00;0.00;;;;;5.49;86.55;100011.63;5000313;28;45346;-79
2022/01/09 05:38:40;;;;;;;;;1.00;1.00;;;;;5.50;86.43;100013.25;5000497;28;45352;-79
2022/01/09 05:41:05;;;;;;;;;1.33;0.33;;;;;5.45;87.09;99994.47;5031971;28;45268;-79
2022/01/09 05:43:32;;;;;;;;;2.00;1.33;;;;;5.57;86.85;100027.50;5032250;28;45397;-79
2022/01/09 05:45:57;;;;;;;;;0.67;0.67;;;;;5.51;87.20;100009.66;5000379;28;45229;-79
2022/01/09 05:48:22;;;;;;;;;0.00;0.00;;;;;5.46;87.33;99996.97;5000155;28;46026;-79
2022/01/09 05:50:48;;;;;;;;;1.00;1.00;;;;;5.60;87.34;100032.41;4998926;28;45328;-79
2022/01/09 05:53:13;;;;;;;;;2.67;1.00;;;;;5.60;87.16;100013.97;5000318;28;45300;-79
2022/01/09 05:55:39;;;;;;;;;1.00;1.00;;;;;5.57;87.27;100014.31;5000029;28;45311;-79
2022/01/09 05:58:04;;;;;;;;;1.00;0.67;;;;;5.54;86.78;100023.34;5031954;28;47137;-79
2022/01/09 06:00:29;;;;;;;;;0.00;0.00;;;;;5.41;86.83;100018.50;5000438;28;45186;-79
2022/01/09 06:02:55;;;;;;;;;1.00;1.00;;;;;5.46;86.56;100028.59;5001247;28;45714;-79
2022/01/09 06:05:20;;;;;;;;;0.33;0.33;;;;;5.33;86.31;100022.94;5000676;28;45504;-79
2022/01/09 06:07:46;;;;;;;;;1.00;1.00;;;;;5.17;86.49;100001.59;5000175;28;46252;-78
2022/01/09 06:10:12;;;;;;;;;0.00;0.00;;;;;5.16;86.33;100001.75;5001494;28;45413;-79
2022/01/09 06:12:37;;;;;;;;;0.00;0.00;;;;;5.04;86.73;100014.38;5033120;28;45466;-78
2022/01/09 06:15:04;;;;;;;;;0.00;0.00;;;;;5.07;87.40;100018.50;5032892;28;45332;-78
2022/01/09 06:17:39;;;;;;;;;0.00;0.00;;;;;5.03;87.58;100023.28;5001863;28;48171;-78
2022/01/09 06:20:06;;;;;;;;;0.00;0.00;;;;;5.02;87.67;100013.69;5020512;28;45325;-79
2022/01/09 06:22:31;;;;;;;;;0.00;0.00;;;;;5.00;87.28;100028.84;5020430;28;45348;-79
2022/01/09 06:24:56;;;;;;;;;0.00;0.00;;;;;4.88;87.47;100002.75;5019225;28;45933;-78
2022/01/09 06:27:22;;;;;;;;;0.00;0.00;;;;;5.02;88.00;100008.44;5018417;28;47226;-78
2022/01/09 06:29:48;;;;;;;;;0.00;0.00;;;;;4.96;87.87;100017.78;5019674;28;45209;-79
2022/01/09 06:32:14;;;;;;;;;0.00;0.00;;;;;5.03;87.84;100029.34;5020253;28;45238;-78
2022/01/09 06:34:41;;;;;;;;;1.00;1.00;;;;;4.98;87.87;100025.53;5019462;28;45151;-78
2022/01/09 06:37:06;;;;;;;;;0.00;0.00;;;;;5.07;88.30;100035.13;5018057;28;47109;-78
2022/01/09 06:39:32;;;;;;;;;0.00;0.00;;;;;5.01;88.01;100028.69;5019356;28;45395;-79
2022/01/09 06:41:57;;;;;;;;;1.00;1.00;;;;;5.10;88.08;100048.00;5019604;28;45253;-79
2022/01/09 06:44:22;;;;;;;;;0.00;0.00;;;;;4.97;87.60;100029.97;5019439;28;45251;-79
2022/01/09 06:46:48;;;;;;;;;1.00;1.00;;;;;5.17;87.86;100059.56;5019451;28;45260;-79
2022/01/09 06:49:13;;;;;;;;;0.00;0.00;;;;;5.14;88.14;100048.50;5019362;28;45438;-79
2022/01/09 06:51:38;;;;;;;;;1.00;1.00;;;;;5.18;88.38;100044.59;5019451;28;45357;-79
2022/01/09 06:54:04;;;;;;;;;0.00;0.00;;;;;5.29;87.99;100056.66;5019212;28;45325;-79
2022/01/09 06:56:29;;;;;;;;;1.67;0.00;;;;;5.36;88.07;100055.03;5019265;28;45326;-79
2022/01/09 06:58:55;;;;;;;;;0.00;0.00;;;;;5.39;88.23;100052.09;5021099;28;45324;-78
2022/01/09 07:01:20;;;;;;;;;1.00;1.00;;;;;5.40;88.16;100048.50;5018665;28;45320;-79
2022/01/09 07:03:46;;;;;;;;;0.67;0.67;;;;;5.39;88.10;100038.13;5019235;28;45423;-78
2022/01/09 07:06:11;;;;;;;;;1.00;1.00;;;;;5.36;87.58;100036.59;5018837;28;45676;-79
2022/01/09 07:08:37;;;;;;;;;2.33;2.33;;;;;5.43;88.05;100036.81;5020254;28;45319;-78
2022/01/09 07:11:04;;;;;;;;;3.00;1.00;;;;;5.53;87.98;100047.22;5020936;28;45268;-78
2022/01/09 07:13:30;;;;;;;;;1.00;1.00;;;;;5.56;87.56;100050.38;5020056;28;45333;-78
2022/01/09 07:15:56;;;;;;;;;1.00;1.00;;;;;5.51;88.23;100038.66;5019046;28;45234;-79
2022/01/09 07:18:23;;;;;;;;;1.00;1.00;;;;;5.61;88.02;100042.00;5008913;28;45341;-79
2022/01/09 07:20:48;;;;;;;;;1.00;1.00;;;;;5.62;88.18;100038.38;4999237;28;45284;-78
2022/01/09 07:23:14;;;;;;;;;1.33;1.33;;;;;5.57;88.00;100035.41;5030910;28;46913;-79
2022/01/09 07:25:39;;;;;;;;;1.00;1.00;;;;;5.59;88.17;100027.34;5033856;28;48334;-79
2022/01/09 07:28:05;;;;;;;;;2.00;2.00;;;;;5.61;87.75;100034.09;5001087;28;46170;-79
2022/01/09 07:30:30;;;;;;;;;2.00;2.00;;;;;5.68;87.42;100047.44;5002669;28;45273;-78
2022/01/09 07:32:56;;;;;;;;;2.67;2.00;;;;;5.61;87.41;100046.44;5000570;28;45453;-80
2022/01/09 07:35:22;;;;;;;;;1.67;1.67;;;;;5.61;87.20;100043.78;5001653;28;45301;-78
2022/01/09 07:37:47;;;;;;;;;2.00;2.00;;;;;5.58;87.49;100039.69;5002371;28;45176;-79
2022/01/09 07:40:13;;;;;;;;;1.00;1.00;;;;;5.62;87.99;100037.53;5001885;28;45667;-78
2022/01/09 07:42:39;;;;;;;;;1.33;0.67;;;;;5.66;88.03;100044.97;5002649;28;46192;-79
2022/01/09 07:45:08;;;;;;;;;0.67;0.67;;;;;5.74;87.83;100049.44;5003123;28;45300;-78
2022/01/09 07:47:34;;;;;;;;;2.00;2.00;;;;;5.67;88.05;100040.53;5003053;28;45359;-78
2022/01/09 07:50:00;;;;;;;;;5.00;5.00;;;;;5.64;87.27;100035.56;5002354;28;45383;-79
2022/01/09 07:52:25;;;;;;;;;3.00;3.00;;;;;5.73;87.75;100047.81;5002204;28;45624;-79
2022/01/09 07:54:50;;;;;;;;;3.00;3.00;;;;;5.79;87.74;100049.81;5002106;28;46509;-79
2022/01/09 07:57:17;;;;;;;;;5.00;4.00;;;;;5.69;87.51;100038.56;5002539;28;45254;-79
2022/01/09 07:59:42;;;;;;;;;4.00;3.00;;;;;5.81;87.54;100050.47;5003472;28;45272;-79
2022/01/09 08:02:09;;;;;;;;;5.00;5.00;;;;;5.74;87.44;100038.06;5002487;28;45495;-79
2022/01/09 08:04:35;;;;;;;;;4.33;4.33;;;;;5.78;87.34;100049.97;5002275;28;46103;-81
2022/01/09 08:07:00;;;;;;;;;7.00;7.00;;;;;5.83;87.04;100057.41;5002116;28;45306;-80
2022/01/09 08:09:26;;;;;;;;;3.67;3.67;;;;;5.76;87.06;100050.13;5017182;28;45324;-79
2022/01/09 08:11:51;;;;;;;;;2.67;2.67;;;;;5.77;86.75;100049.13;5017085;28;45897;-82
2022/01/09 08:14:17;;;;;;;;;2.67;2.67;;;;;5.68;86.91;100047.44;4999679;28;45417;-80
2022/01/09 08:16:42;;;;;;;;;2.00;2.00;;;;;5.72;87.07;100061.97;5033437;28;45292;-80
2022/01/09 08:19:07;;;;;;;;;1.00;1.00;;;;;5.63;87.11;100050.56;5017800;28;45332;-79
2022/01/09 08:21:33;;;;;;;;;2.00;2.00;;;;;5.50;87.32;100035.19;4983315;28;45388;-79
2022/01/09 08:23:58;;;;;;;;;3.00;2.33;;;;;5.71;87.55;100072.69;4982351;28;45258;-80
2022/01/09 08:26:23;;;;;;;;;2.00;2.00;;;;;5.67;86.92;100065.09;4982213;28;45344;-80
2022/01/09 08:28:49;;;;;;;;;2.00;1.67;;;;;5.71;86.90;100077.97;4981561;28;45380;-78
2022/01/09 08:31:17;;;;;;;;;2.00;2.00;;;;;5.69;87.12;100067.56;4997820;28;46044;-79
2022/01/09 08:33:43;;;;;;;;;2.00;2.00;;;;;5.67;87.26;100064.25;4983451;28;46189;-78
2022/01/09 08:36:09;;;;;;;;;1.00;1.00;;;;;5.59;87.04;100057.13;4982258;28;45216;-79
2022/01/09 08:38:34;;;;;;;;;2.00;2.00;;;;;5.64;86.83;100068.03;4981883;28;45224;-79
2022/01/09 08:41:00;;;;;;;;;0.67;0.67;;;;;5.61;86.80;100054.34;4996652;28;46396;-80
2022/01/09 08:43:25;;;;;;;;;1.67;1.67;;;;;5.69;86.99;100063.09;4981520;28;45338;-81
2022/01/09 08:45:51;;;;;;;;;2.67;0.33;;;;;5.51;86.69;100039.47;4981820;28;45284;-79
2022/01/09 08:48:17;;;;;;;;;3.00;3.00;;;;;5.63;87.10;100061.09;4981828;28;45806;-80
2022/01/09 08:50:43;;;;;;;;;1.00;1.00;;;;;5.75;87.26;100081.94;4981409;28;45316;-80
2022/01/09 08:53:09;;;;;;;;;0.00;0.00;;;;;5.44;87.52;100014.72;4987690;28;45652;-79
2022/01/09 08:55:34;;;;;;;;;0.00;0.00;;;;;5.82;87.62;100069.75;4998799;28;45467;-79
2022/01/09 08:57:59;;;;;;;;;1.00;1.00;;;;;5.88;87.19;100060.38;4999035;28;45585;-79
2022/01/09 09:00:26;;;;;;;;;25.00;25.00;;;;;5.91;87.48;100060.91;4999269;28;45577;-79
2022/01/09 09:02:51;;;;;;;;;11.25;10.00;;;;;6.02;87.35;100069.50;5013902;28;47154;-80
2022/01/09 09:05:18;;;;;;;;;3.00;3.00;;;;;6.06;87.27;100066.41;4999640;28;45320;-79
2022/01/09 09:07:44;;;;;;;;;1.33;1.33;;;;;6.08;87.36;100066.25;5001147;28;45285;-79
2022/01/09 09:10:09;;;;;;;;;2.00;2.00;;;;;6.03;87.47;100069.34;5000432;28;45476;-79
2022/01/09 09:12:35;;;;;;;;;2.00;1.00;;;;;6.10;87.20;100064.25;4999620;28;45934;-79
2022/01/09 09:15:03;;;;;;;;;2.00;1.00;;;;;6.09;87.72;100065.25;4998350;28;45288;-79
2022/01/09 09:17:30;;;;;;;;;1.33;1.00;;;;;6.21;87.57;100091.31;5001383;28;45359;-81
2022/01/09 09:19:56;;;;;;;;;2.00;0.33;;;;;6.15;87.00;100072.53;5018770;28;45439;-82
2022/01/09 09:22:22;;;;;;;;;1.00;1.00;;;;;6.25;86.71;100084.72;5013341;28;46482;-79
2022/01/09 09:24:47;;;;;;;;;1.33;1.33;;;;;6.19;86.78;100081.75;5000437;28;45258;-78
2022/01/09 09:27:13;;;;;;;;;2.00;1.00;;;;;6.21;86.54;100088.69;5000684;28;45232;-79
2022/01/09 09:29:38;;;;;;;;;3.00;2.00;;;;;6.17;87.38;100111.94;4996156;28;45935;-78
2022/01/09 09:32:04;;;;;;;;;2.00;2.00;;;;;6.05;87.05;100103.50;4999949;28;46159;-80
2022/01/09 09:34:31;;;;;;;;;5.00;3.67;;;;;6.05;87.38;100108.78;4997064;28;45328;-79
2022/01/09 09:36:56;;;;;;;;;2.67;2.67;;;;;6.05;87.04;100111.41;4998575;28;45463;-79
2022/01/09 09:39:21;;;;;;;;;3.00;3.00;;;;;5.97;87.45;100101.63;4999287;28;45467;-79
2022/01/09 09:41:48;;;;;;;;;5.00;4.33;;;;;5.98;87.31;100108.56;4999214;28;46200;-79
2022/01/09 09:44:13;;;;;;;;;6.33;5.33;;;;;6.04;87.36;100110.59;4998330;28;45480;-78
2022/01/09 09:46:39;;;;;;;;;4.00;4.00;;;;;6.17;87.36;100125.16;4999083;28;45451;-78
2022/01/09 09:49:05;;;;;;;;;3.67;3.00;;;;;6.09;86.46;100114.53;4999576;28;45556;-78
2022/01/09 09:51:31;;;;;;;;;1.33;1.00;;;;;5.97;85.25;100116.63;4999475;28;46263;-78
2022/01/09 09:53:57;;;;;;;;;11.33;11.33;;;;;5.90;85.56;100111.97;4999453;28;45304;-78
2022/01/09 09:56:23;;;;;;;;;12.00;11.00;;;;;5.87;85.77;100122.84;5000401;28;45195;-78
2022/01/09 09:58:51;;;;;;;;;4.00;4.00;;;;;5.88;85.61;100128.94;4999983;28;45218;-78
2022/01/09 10:01:24;;;;;;;;;3.00;3.00;;;;;5.91;86.11;100131.28;4999626;28;45347;-79
2022/01/09 10:03:55;;;;;;;;;1.00;1.00;;;;;5.87;85.56;100122.03;5013957;28;45628;-79
2022/01/09 10:06:46;;;;;;;;;1.00;1.00;;;;;5.95;85.82;100122.06;5014401;28;45279;-78
2022/01/09 10:09:20;;;;;;;;;1.67;1.00;;;;;5.98;85.78;100120.94;4998970;28;45667;-79
2022/01/09 10:11:52;;;;;;;;;1.33;1.33;;;;;6.09;85.92;100144.41;4996656;28;46033;-79
2022/01/09 10:14:21;;;;;;;;;7.00;6.00;;;;;6.02;85.69;100136.25;5015068;28;45399;-78
2022/01/09 10:17:12;;;;;;;;;17.00;14.67;;;;;6.05;85.54;100143.88;5000011;28;45303;-79
2022/01/09 10:19:58;;;;;;;;;4.33;4.33;;;;;6.08;86.12;100137.50;4999878;28;45363;-79
2022/01/09 10:22:34;;;;;;;;;12.67;12.00;;;;;6.01;86.25;100124.06;4999614;28;46158;-79
2022/01/09 10:25:21;;;;;;;;;4.00;4.00;;;;;6.08;86.22;100145.41;4998334;28;45989;-79
2022/01/09 10:28:08;;;;;;;;;1.00;1.00;;;;;6.08;86.01;100147.19;4998599;28;45234;-79
2022/01/09 10:30:48;;;;;;;;;2.00;2.00;;;;;6.01;85.79;100139.06;4999719;28;45446;-79
2022/01/09 10:33:16;;;;;;;;;3.33;3.33;;;;;6.06;86.22;100158.75;4999541;28;45252;-79
2022/01/09 10:35:44;;;;;;;;;9.00;6.00;;;;;5.93;85.83;100139.88;4999612;28;45239;-79
2022/01/09 10:38:17;;;;;;;;;9.00;6.67;;;;;5.92;86.04;100135.56;4994041;28;45398;-79
2022/01/09 10:40:47;;;;;;;;;6.33;6.00;;;;;5.89;86.32;100136.72;4999088;28;45360;-80
2022/01/09 10:43:22;;;;;;;;;6.00;5.00;;;;;5.92;86.01;100149.59;5014579;28;48161;-79
2022/01/09 10:46:02;;;;;;;;;2.33;2.33;;;;;6.03;86.25;100172.22;5014633;28;45258;-79
2022/01/09 10:48:38;;;;;;;;;6.33;6.33;;;;;6.04;86.38;100170.44;5014247;28;45353;-77
2022/01/09 10:51:06;;;;;;;;;13.67;12.00;;;;;6.02;86.25;100156.56;5014032;28;47481;-78
2022/01/09 10:53:34;;;;;;;;;6.33;6.33;;;;;5.96;86.09;100160.66;4999218;28;45739;-78
2022/01/09 10:56:08;;;;;;;;;11.00;10.00;;;;;6.06;86.19;100173.75;4999185;28;45396;-78
2022/01/09 10:58:49;;;;;;;;;19.33;17.00;;;;;6.08;85.98;100177.06;5012065;28;45381;-81
2022/01/09 11:01:23;;;;;;;;;5.00;5.00;;;;;6.06;85.86;100177.22;5002576;28;45310;-77
2022/01/09 11:04:09;;;;;;;;;5.00;4.00;;;;;5.97;85.96;100164.09;5017922;28;48329;-78
2022/01/09 11:06:38;;;;;;;;;3.00;3.00;;;;;5.83;85.99;100152.34;5001549;28;45359;-78
2022/01/09 11:09:05;;;;;;;;;3.00;3.00;;;;;5.80;85.99;100159.59;5002469;28;45288;-77
2022/01/09 11:11:38;;;;;;;;;10.67;10.67;;;;;5.76;86.21;100146.88;5002136;28;45505;-77
2022/01/09 11:14:07;;;;;;;;;6.67;5.00;;;;;5.74;86.35;100133.00;5002388;28;45285;-78
2022/01/09 11:16:33;;;;;;;;;2.67;2.00;;;;;5.85;85.99;100143.28;5017748;28;45935;-78
2022/01/09 11:19:13;;;;;;;;;0.00;0.00;;;;;5.90;86.28;100141.00;5017356;28;45355;-79
2022/01/09 11:21:44;;;;;;;;;1.33;1.33;;;;;5.94;86.09;100130.97;5022338;28;45212;-78
2022/01/09 11:24:31;;;;;;;;;3.00;3.00;;;;;5.97;86.56;100143.00;5020490;28;47692;-78
2022/01/09 11:26:56;;;;;;;;;1.00;1.00;;;;;6.02;86.32;100157.38;5022087;28;45355;-78
2022/01/09 11:29:54;;;;;;;;;3.00;3.00;;;;;5.88;86.02;100132.44;5021076;28;45481;-78
2022/01/09 11:32:47;;;;;;;;;4.00;4.00;;;;;6.05;86.10;100157.06;5015176;28;47088;-78
2022/01/09 11:35:31;;;;;;;;;1.00;1.00;;;;;6.08;86.17;100148.03;5021583;28;45298;-79
2022/01/09 11:38:04;;;;;;;;;1.00;1.00;;;;;6.12;86.00;100157.28;5010249;28;45323;-78